Time;durP1;ratioP1;P1;durP2;ratioP2;P2;SDS_P1;SDS_P2;PMS_P1;PMS_P2;Temp;Humidity;BMP_temperature;BMP_pressure;BME280_temperature;BME280_humidity;BME280_pressure;Samples;Min_cycle;Max_cycle;Signal;HPM_P1;HPM_P2
2020/12/09 00:01:17;;;;;;;44.50;26.97;;;3.30;99.90;;;;;;5069244;28;20455;-27
2020/12/09 00:03:43;;;;;;;39.37;26.07;;;3.30;99.90;;;;;;5067884;28;20938;-27
2020/12/09 00:06:11;;;;;;;43.50;27.30;;;3.20;99.90;;;;;;5069195;28;20741;-28
2020/12/09 00:08:39;;;;;;;40.77;27.27;;;3.30;99.90;;;;;;5069008;28;20443;-28
2020/12/09 00:11:07;;;;;;;40.53;25.80;;;3.30;99.90;;;;;;5068935;28;20444;-27
2020/12/09 00:13:34;;;;;;;44.30;27.23;;;3.40;99.90;;;;;;5069266;28;20560;-28
2020/12/09 00:16:01;;;;;;;44.43;26.90;;;3.40;99.90;;;;;;5069876;28;20456;-26
2020/12/09 00:18:27;;;;;;;39.83;28.07;;;3.50;99.90;;;;;;5070393;28;20444;-27
2020/12/09 00:20:54;;;;;;;43.63;26.37;;;3.50;99.90;;;;;;5052540;28;20457;-27
2020/12/09 00:23:22;;;;;;;46.30;27.67;;;3.50;99.90;;;;;;5070150;28;20448;-27
2020/12/09 00:25:48;;;;;;;42.30;27.27;;;3.40;99.90;;;;;;5070446;28;20490;-27
2020/12/09 00:28:15;;;;;;;43.37;26.73;;;3.40;99.90;;;;;;5070180;28;20521;-28
2020/12/09 00:30:48;;;;;;;45.33;27.37;;;3.40;99.90;;;;;;5071936;28;20856;-28
2020/12/09 00:33:15;;;;;;;39.53;26.10;;;3.40;99.90;;;;;;5073684;28;20433;-26
2020/12/09 00:35:42;;;;;;;40.90;23.93;;;3.40;99.90;;;;;;5074045;28;20464;-27
2020/12/09 00:38:09;;;;;;;41.23;28.33;;;3.50;99.90;;;;;;5073813;28;21078;-27
2020/12/09 00:40:37;;;;;;;43.13;27.03;;;3.60;99.90;;;;;;5072927;28;20522;-26
2020/12/09 00:43:05;;;;;;;44.27;26.77;;;3.70;99.90;;;;;;5073020;28;20436;-27
2020/12/09 00:45:32;;;;;;;43.23;27.00;;;3.80;99.90;;;;;;5073623;28;20433;-27
2020/12/09 00:47:59;;;;;;;40.60;26.30;;;3.80;99.90;;;;;;5072661;28;20444;-28
2020/12/09 00:50:28;;;;;;;38.97;27.20;;;3.80;99.90;;;;;;5074497;28;20818;-28
2020/12/09 00:53:03;;;;;;;41.67;26.97;;;3.90;99.90;;;;;;5072134;28;20447;-27
2020/12/09 00:55:31;;;;;;;38.03;26.37;;;3.90;99.90;;;;;;5070871;28;20460;-27
2020/12/09 00:57:58;;;;;;;40.57;25.20;;;3.90;99.90;;;;;;5055444;28;20447;-31
2020/12/09 01:00:26;;;;;;;42.67;28.47;;;3.90;99.90;;;;;;5072764;28;21035;-27
2020/12/09 01:03:03;;;;;;;38.27;25.03;;;3.90;99.90;;;;;;5071596;28;21039;-28
2020/12/09 01:05:31;;;;;;;41.50;27.60;;;3.90;99.90;;;;;;5070921;28;20440;-28
2020/12/09 01:07:58;;;;;;;37.80;26.90;;;3.90;99.90;;;;;;5071997;28;20483;-29
2020/12/09 01:10:24;;;;;;;44.57;28.23;;;4.00;99.90;;;;;;5069400;28;20440;-30
2020/12/09 01:12:51;;;;;;;37.07;24.30;;;4.00;99.90;;;;;;5071184;28;20445;-28
2020/12/09 01:15:18;;;;;;;41.70;26.10;;;4.00;99.90;;;;;;5071032;28;20464;-28
2020/12/09 01:17:46;;;;;;;40.60;26.40;;;3.90;99.90;;;;;;5072321;28;21061;-27
2020/12/09 01:20:12;;;;;;;41.07;26.70;;;3.90;99.90;;;;;;5073124;28;20441;-27
2020/12/09 01:22:39;;;;;;;44.43;27.83;;;3.80;99.90;;;;;;5071551;28;20448;-28
2020/12/09 01:25:05;;;;;;;35.30;24.87;;;3.70;99.90;;;;;;5071845;28;20712;-27
2020/12/09 01:27:32;;;;;;;45.70;29.50;;;3.70;99.90;;;;;;5071956;28;20444;-27
2020/12/09 01:30:00;;;;;;;37.90;25.73;;;3.80;99.90;;;;;;5071970;28;20456;-30
2020/12/09 01:32:28;;;;;;;34.00;23.53;;;3.80;99.90;;;;;;5071096;28;20437;-28
2020/12/09 01:34:55;;;;;;;37.07;26.00;;;3.80;99.90;;;;;;5070344;28;20464;-28
2020/12/09 01:37:21;;;;;;;36.67;26.17;;;3.90;99.90;;;;;;5070084;28;20453;-27
2020/12/09 01:39:48;;;;;;;36.70;24.13;;;3.90;99.90;;;;;;5071501;28;20444;-27
2020/12/09 01:42:15;;;;;;;42.23;25.00;;;3.90;99.90;;;;;;5070312;28;20439;-27
2020/12/09 01:44:42;;;;;;;33.50;22.43;;;3.90;99.90;;;;;;5072547;28;20727;-27
2020/12/09 01:47:09;;;;;;;33.20;24.90;;;4.00;99.90;;;;;;5072980;28;20518;-27
2020/12/09 01:49:37;;;;;;;39.33;26.33;;;4.00;99.90;;;;;;5072732;28;21118;-27
2020/12/09 01:52:05;;;;;;;36.70;23.67;;;4.00;99.90;;;;;;5072153;28;20778;-28
2020/12/09 01:54:32;;;;;;;39.47;24.83;;;4.00;99.90;;;;;;5072046;28;20475;-27
2020/12/09 01:57:06;;;;;;;36.70;25.47;;;4.00;99.90;;;;;;5073141;28;20440;-26
2020/12/09 01:59:34;;;;;;;38.33;25.07;;;4.00;99.90;;;;;;5073024;28;20466;-27
2020/12/09 02:02:01;;;;;;;33.90;24.20;;;4.00;99.90;;;;;;5071896;28;20433;-27
2020/12/09 02:04:28;;;;;;;37.57;24.60;;;4.00;99.90;;;;;;5072088;28;20444;-28
2020/12/09 02:06:55;;;;;;;37.13;24.60;;;4.10;99.90;;;;;;5072812;28;20444;-26
2020/12/09 02:09:22;;;;;;;33.73;22.83;;;4.00;99.90;;;;;;5072022;28;20437;-27
2020/12/09 02:11:50;;;;;;;36.37;24.53;;;4.00;99.90;;;;;;5054720;28;21219;-26
2020/12/09 02:14:17;;;;;;;39.50;25.30;;;4.00;99.90;;;;;;5071196;28;20909;-26
2020/12/09 02:16:48;;;;;;;40.10;25.80;;;4.00;99.90;;;;;;5072250;28;20441;-27
2020/12/09 02:19:14;;;;;;;36.80;24.67;;;4.10;99.90;;;;;;5072802;28;20443;-27
2020/12/09 02:21:42;;;;;;;33.03;23.37;;;4.10;99.90;;;;;;5072209;28;20437;-27
2020/12/09 02:24:08;;;;;;;37.90;25.83;;;4.20;99.90;;;;;;5072431;28;20441;-27
2020/12/09 02:26:39;;;;;;;34.67;24.23;;;4.20;99.90;;;;;;5071380;28;20861;-27
2020/12/09 02:29:06;;;;;;;38.20;24.43;;;4.10;99.90;;;;;;5071648;28;20471;-27
2020/12/09 02:31:33;;;;;;;37.40;25.40;;;4.10;99.90;;;;;;5072282;28;20441;-27
2020/12/09 02:33:59;;;;;;;38.80;25.10;;;4.00;99.90;;;;;;5071843;28;20973;-27
2020/12/09 02:36:26;;;;;;;38.27;24.37;;;4.00;99.90;;;;;;5071000;28;20452;-26
2020/12/09 02:38:54;;;;;;;36.53;24.37;;;4.00;99.90;;;;;;5071994;28;20529;-27
2020/12/09 02:41:20;;;;;;;40.67;27.20;;;4.00;99.90;;;;;;5072001;28;20818;-26
2020/12/09 02:43:47;;;;;;;43.27;25.63;;;4.00;99.90;;;;;;5071892;28;20453;-27
2020/12/09 02:46:14;;;;;;;40.90;26.27;;;4.00;99.90;;;;;;5072762;28;20720;-27
2020/12/09 02:48:41;;;;;;;39.57;26.00;;;4.00;99.90;;;;;;5070897;28;20468;-27
2020/12/09 02:51:07;;;;;;;44.70;26.53;;;4.00;99.90;;;;;;5072037;28;20441;-27
2020/12/09 02:53:34;;;;;;;37.47;26.70;;;3.90;99.90;;;;;;5070627;28;20448;-27
2020/12/09 02:56:01;;;;;;;36.27;24.30;;;3.80;99.90;;;;;;5053968;28;20548;-27
2020/12/09 02:58:29;;;;;;;38.10;24.90;;;3.80;99.90;;;;;;5072323;28;20456;-26
2020/12/09 03:00:56;;;;;;;38.20;25.97;;;3.90;99.90;;;;;;5070687;28;20452;-27
2020/12/09 03:03:23;;;;;;;39.40;25.83;;;3.90;99.90;;;;;;5071654;28;20811;-27
2020/12/09 03:05:49;;;;;;;44.03;25.13;;;3.90;99.90;;;;;;5072296;28;20433;-27
2020/12/09 03:08:17;;;;;;;41.10;26.33;;;3.90;99.90;;;;;;5072441;28;20441;-27
2020/12/09 03:10:43;;;;;;;40.10;26.20;;;3.90;99.90;;;;;;5070662;28;20440;-27
2020/12/09 03:13:10;;;;;;;36.40;25.27;;;3.90;99.90;;;;;;5071167;28;20548;-26
2020/12/09 03:15:37;;;;;;;40.90;26.70;;;4.00;99.90;;;;;;5071437;28;20514;-26
2020/12/09 03:18:04;;;;;;;39.20;24.93;;;4.10;99.90;;;;;;5072196;28;20447;-27
2020/12/09 03:20:30;;;;;;;39.20;25.73;;;4.20;99.90;;;;;;5072034;28;20530;-27
2020/12/09 03:22:57;;;;;;;40.13;26.80;;;4.20;99.90;;;;;;5071701;28;20429;-26
2020/12/09 03:25:23;;;;;;;42.77;27.13;;;4.20;99.90;;;;;;5071751;28;20441;-27
2020/12/09 03:27:50;;;;;;;39.83;25.80;;;4.20;99.90;;;;;;5070571;28;21157;-27
2020/12/09 03:30:17;;;;;;;42.87;25.67;;;4.10;99.90;;;;;;5071075;28;20851;-27
2020/12/09 03:32:44;;;;;;;42.27;25.47;;;4.00;99.90;;;;;;5070524;28;20510;-27
2020/12/09 03:35:11;;;;;;;44.00;26.43;;;4.00;99.90;;;;;;5069952;28;20558;-26
2020/12/09 03:37:38;;;;;;;47.93;27.50;;;4.00;99.90;;;;;;5071191;28;20468;-27
2020/12/09 03:40:04;;;;;;;40.60;24.30;;;4.00;99.90;;;;;;5071368;28;20437;-27
2020/12/09 03:42:31;;;;;;;48.47;27.37;;;4.00;99.90;;;;;;5070022;28;20437;-26
2020/12/09 03:44:57;;;;;;;41.47;25.57;;;4.00;99.90;;;;;;5071047;28;20510;-27
2020/12/09 03:47:25;;;;;;;40.70;26.47;;;4.00;99.90;;;;;;5070351;28;20841;-28
2020/12/09 03:49:52;;;;;;;43.13;27.73;;;4.00;99.90;;;;;;5070059;28;20476;-27
2020/12/09 03:52:18;;;;;;;41.50;23.83;;;4.00;99.90;;;;;;5052414;28;20441;-27
2020/12/09 03:54:45;;;;;;;43.60;25.00;;;4.00;99.90;;;;;;5071185;28;20468;-26
2020/12/09 03:57:12;;;;;;;38.80;25.57;;;4.00;99.90;;;;;;5070300;28;20437;-27
2020/12/09 03:59:38;;;;;;;42.87;27.40;;;4.00;99.90;;;;;;5071141;28;20453;-27
2020/12/09 04:02:05;;;;;;;43.87;27.70;;;4.00;99.90;;;;;;5070146;28;20425;-27
2020/12/09 04:04:33;;;;;;;42.33;27.53;;;4.00;99.90;;;;;;5070438;28;20503;-26
2020/12/09 04:07:00;;;;;;;47.40;26.40;;;4.00;99.90;;;;;;5069775;28;20870;-26
2020/12/09 04:09:26;;;;;;;46.73;27.63;;;4.00;99.90;;;;;;5070407;28;20449;-27
2020/12/09 04:11:53;;;;;;;43.27;27.60;;;4.10;99.90;;;;;;5070873;28;20490;-26
2020/12/09 04:14:19;;;;;;;53.63;31.77;;;4.00;99.90;;;;;;5070789;28;20523;-27
2020/12/09 04:16:47;;;;;;;43.00;26.30;;;4.00;99.90;;;;;;5070695;28;20494;-27
2020/12/09 04:19:14;;;;;;;45.50;29.10;;;4.00;99.90;;;;;;5069522;28;20436;-26
2020/12/09 04:21:42;;;;;;;40.00;26.80;;;3.90;99.90;;;;;;5070138;28;20450;-27
2020/12/09 04:24:08;;;;;;;45.97;27.90;;;3.90;99.90;;;;;;5068907;28;20456;-27
2020/12/09 04:26:35;;;;;;;46.77;28.00;;;4.00;99.90;;;;;;5069206;28;20841;-27
2020/12/09 04:29:02;;;;;;;40.17;26.13;;;4.00;99.90;;;;;;5069669;28;20877;-27
2020/12/09 04:31:28;;;;;;;38.70;25.70;;;4.00;99.90;;;;;;5070175;28;20472;-26
2020/12/09 04:33:56;;;;;;;44.70;28.63;;;4.00;99.90;;;;;;5070142;28;20444;-26
2020/12/09 04:36:23;;;;;;;38.67;24.40;;;4.10;99.90;;;;;;5068407;28;20465;-27
2020/12/09 04:38:51;;;;;;;46.00;28.33;;;4.10;99.90;;;;;;5069106;28;20758;-26
2020/12/09 04:41:17;;;;;;;37.40;24.90;;;4.00;99.90;;;;;;5067917;28;20441;-27
2020/12/09 04:43:44;;;;;;;39.30;25.00;;;4.00;99.90;;;;;;5068053;28;20526;-27
2020/12/09 04:46:11;;;;;;;42.10;26.27;;;3.90;99.90;;;;;;5069513;28;20441;-27
2020/12/09 04:48:41;;;;;;;41.70;26.33;;;3.90;99.90;;;;;;5069321;28;20573;-27
2020/12/09 04:51:29;;;;;;;38.10;25.37;;;3.90;99.90;;;;;;5068730;28;20532;-27
2020/12/09 04:53:59;;;;;;;40.40;25.37;;;3.90;99.90;;;;;;5068911;28;21239;-27
2020/12/09 04:56:32;;;;;;;40.40;25.30;;;3.90;99.90;;;;;;5069188;28;20530;-26
2020/12/09 04:58:59;;;;;;;36.40;25.30;;;3.90;99.90;;;;;;5069744;28;20855;-29
2020/12/09 05:01:34;;;;;;;41.10;25.73;;;3.80;99.90;;;;;;5049650;28;20449;-27
2020/12/09 05:04:08;;;;;;;39.93;22.63;;;3.80;99.90;;;;;;5067798;28;20432;-27
2020/12/09 05:06:41;;;;;;;40.67;25.43;;;3.80;99.90;;;;;;5068699;28;20946;-27
2020/12/09 05:09:17;;;;;;;36.40;22.80;;;3.80;99.90;;;;;;5044607;28;20449;-27
2020/12/09 05:11:47;;;;;;;40.97;24.77;;;3.90;99.90;;;;;;5048650;28;20709;-27
2020/12/09 05:14:17;;;;;;;42.47;26.63;;;3.90;99.90;;;;;;5047651;28;20449;-27
2020/12/09 05:16:56;;;;;;;41.87;25.33;;;3.90;99.90;;;;;;5048264;28;20470;-28
2020/12/09 05:19:23;;;;;;;38.80;25.67;;;3.90;99.90;;;;;;5049494;28;20938;-26
2020/12/09 05:21:51;;;;;;;40.97;24.27;;;4.00;99.90;;;;;;5049623;28;21101;-27
2020/12/09 05:24:20;;;;;;;38.17;21.47;;;4.00;99.90;;;;;;5032825;28;21268;-26
2020/12/09 05:26:47;;;;;;;33.50;21.90;;;4.00;99.90;;;;;;5056318;28;20539;-27
2020/12/09 05:29:15;;;;;;;33.20;22.77;;;4.00;99.90;;;;;;5070002;28;20476;-27
2020/12/09 05:31:43;;;;;;;35.47;23.10;;;3.90;99.90;;;;;;5068176;28;20472;-27
2020/12/09 05:34:30;;;;;;;36.60;22.97;;;3.90;99.90;;;;;;5068194;28;20433;-28
2020/12/09 05:36:59;;;;;;;32.80;20.80;;;3.90;99.90;;;;;;5068774;28;20531;-27
2020/12/09 05:39:27;;;;;;;41.23;25.00;;;3.90;99.90;;;;;;5049681;28;21100;-28
2020/12/09 05:41:54;;;;;;;37.50;25.47;;;3.80;99.90;;;;;;5068754;28;20437;-26
2020/12/09 05:44:21;;;;;;;42.40;26.57;;;3.70;99.90;;;;;;5066882;28;21179;-27
2020/12/09 05:46:56;;;;;;;39.23;24.17;;;3.80;99.90;;;;;;5067218;28;20437;-27
2020/12/09 05:49:25;;;;;;;37.17;23.87;;;3.80;99.90;;;;;;5066068;28;20483;-27
2020/12/09 05:52:13;;;;;;;39.13;24.20;;;3.70;99.90;;;;;;5064505;28;20748;-27
2020/12/09 05:54:42;;;;;;;35.70;23.03;;;3.70;99.90;;;;;;5046184;28;20441;-29
2020/12/09 05:57:10;;;;;;;38.30;24.40;;;3.70;99.90;;;;;;5065785;28;20494;-27
2020/12/09 05:59:38;;;;;;;39.50;24.30;;;3.70;99.90;;;;;;5067683;28;20461;-27
2020/12/09 06:02:13;;;;;;;39.00;25.13;;;3.70;99.90;;;;;;5062207;28;20460;-26
2020/12/09 06:04:55;;;;;;;37.50;23.10;;;3.70;99.90;;;;;;5063157;28;20497;-28
2020/12/09 06:07:23;;;;;;;36.60;23.27;;;3.80;99.90;;;;;;5063393;28;20459;-27
2020/12/09 06:10:07;;;;;;;34.60;23.13;;;3.90;99.90;;;;;;5063938;28;20445;-27
2020/12/09 06:12:55;;;;;;;38.83;23.70;;;3.80;99.90;;;;;;5061116;28;20894;-27
2020/12/09 06:15:23;;;;;;;34.30;21.70;;;3.90;99.90;;;;;;5059920;28;20464;-27
2020/12/09 06:18:07;;;;;;;34.37;21.67;;;4.00;99.90;;;;;;5061208;28;20441;-28
2020/12/09 06:20:34;;;;;;;35.50;22.07;;;3.90;99.90;;;;;;5058619;28;20441;-27
2020/12/09 06:23:03;;;;;;;34.80;22.60;;;3.90;99.90;;;;;;5061573;28;20437;-27
2020/12/09 06:25:30;;;;;;;34.27;21.30;;;3.90;99.90;;;;;;5058665;28;21098;-27
2020/12/09 06:27:58;;;;;;;38.50;26.57;;;4.00;99.90;;;;;;5056166;28;20488;-27
2020/12/09 06:30:28;;;;;;;35.77;24.10;;;4.00;99.90;;;;;;5053505;28;20453;-27
2020/12/09 06:32:57;;;;;;;47.83;31.23;;;4.00;99.90;;;;;;5059008;28;20482;-27
2020/12/09 06:35:24;;;;;;;40.47;26.90;;;3.90;99.90;;;;;;5039105;28;20457;-30
2020/12/09 06:38:15;;;;;;;42.33;26.07;;;3.90;99.90;;;;;;5055243;28;20507;-27
2020/12/09 06:41:12;;;;;;;37.43;26.57;;;3.90;99.90;;;;;;5053429;28;20460;-27
2020/12/09 06:43:59;;;;;;;31.87;21.77;;;3.80;99.90;;;;;;5048112;28;20571;-29
2020/12/09 06:46:46;;;;;;;32.80;21.43;;;3.80;99.90;;;;;;5048910;28;20778;-27
2020/12/09 06:49:33;;;;;;;31.73;19.83;;;3.90;99.90;;;;;;5049609;28;20972;-27
2020/12/09 06:52:01;;;;;;;34.57;20.10;;;3.90;99.90;;;;;;5051277;28;20862;-27
2020/12/09 06:54:38;;;;;;;32.93;19.57;;;3.90;99.90;;;;;;5047578;28;21129;-27
2020/12/09 06:57:28;;;;;;;28.93;19.47;;;3.90;99.90;;;;;;5036451;28;21066;-27
2020/12/09 07:00:16;;;;;;;31.23;20.33;;;3.90;99.90;;;;;;5036713;28;20908;-27
2020/12/09 07:02:44;;;;;;;31.90;20.37;;;3.90;99.90;;;;;;5038290;28;20445;-26
2020/12/09 07:05:12;;;;;;;27.40;18.33;;;4.00;99.90;;;;;;5026431;28;20438;-28
2020/12/09 07:07:44;;;;;;;21.17;17.10;;;3.90;99.90;;;;;;5029730;28;20452;-27
2020/12/09 07:10:24;;;;;;;26.27;19.17;;;4.00;99.90;;;;;;5040158;28;20907;-27
2020/12/09 07:13:03;;;;;;;25.30;18.60;;;4.00;99.90;;;;;;5046056;28;20506;-32
2020/12/09 07:15:30;;;;;;;25.87;17.93;;;4.00;99.90;;;;;;5045531;28;20499;-27
2020/12/09 07:17:57;;;;;;;28.23;18.93;;;3.90;99.90;;;;;;5033395;28;20587;-27
2020/12/09 07:20:24;;;;;;;24.90;17.13;;;3.90;99.90;;;;;;5035713;28;20453;-29
2020/12/09 07:22:53;;;;;;;25.30;19.33;;;3.90;99.90;;;;;;5027466;28;21362;-27
2020/12/09 07:25:20;;;;;;;31.83;22.37;;;3.90;99.90;;;;;;5026373;28;20551;-29
2020/12/09 07:27:47;;;;;;;25.97;17.47;;;3.80;99.90;;;;;;5042650;28;21050;-27
2020/12/09 07:30:18;;;;;;;27.57;19.13;;;3.90;99.90;;;;;;5045341;28;20456;-27
2020/12/09 07:32:47;;;;;;;29.40;18.03;;;3.90;99.90;;;;;;5035832;28;20445;-27
2020/12/09 07:35:14;;;;;;;25.40;18.53;;;4.00;99.90;;;;;;5029588;28;20485;-27
2020/12/09 07:37:45;;;;;;;23.20;19.00;;;4.00;99.90;;;;;;5022604;28;20441;-27
2020/12/09 07:40:14;;;;;;;30.93;19.60;;;4.00;99.90;;;;;;5038283;28;20456;-26
2020/12/09 07:42:40;;;;;;;29.27;20.10;;;4.00;99.90;;;;;;5040620;28;20954;-27
2020/12/09 07:45:12;;;;;;;31.63;19.27;;;4.10;99.90;;;;;;5027643;28;20472;-30
2020/12/09 07:47:40;;;;;;;29.67;20.10;;;4.10;99.90;;;;;;5043413;28;21231;-27
2020/12/09 07:50:08;;;;;;;28.20;19.27;;;4.00;99.90;;;;;;5028889;28;20625;-27
2020/12/09 07:52:36;;;;;;;32.63;21.37;;;4.00;99.90;;;;;;5038651;28;20550;-27
2020/12/09 07:55:06;;;;;;;28.57;19.23;;;4.00;99.90;;;;;;5025370;28;20564;-27
2020/12/09 07:57:35;;;;;;;29.77;19.73;;;4.00;99.90;;;;;;5022227;28;20583;-27
2020/12/09 08:00:06;;;;;;;32.20;19.80;;;4.00;99.90;;;;;;5003540;28;20462;-26
2020/12/09 08:02:41;;;;;;;32.17;19.97;;;3.90;99.90;;;;;;5020397;28;20538;-27
2020/12/09 08:05:17;;;;;;;34.67;22.23;;;3.90;99.90;;;;;;5020926;28;21189;-27
2020/12/09 08:07:45;;;;;;;30.90;19.70;;;3.90;99.90;;;;;;5039664;28;20452;-26
2020/12/09 08:10:12;;;;;;;35.03;21.97;;;3.90;99.90;;;;;;5037639;28;20480;-27
2020/12/09 08:12:41;;;;;;;30.97;21.13;;;3.80;99.90;;;;;;5039519;28;20557;-27
2020/12/09 08:15:09;;;;;;;34.20;23.23;;;3.80;99.90;;;;;;5037099;28;20546;-27
2020/12/09 08:17:35;;;;;;;34.20;23.63;;;3.90;99.90;;;;;;5014637;28;20460;-28
2020/12/09 08:20:06;;;;;;;38.80;22.43;;;3.90;99.90;;;;;;5035263;28;20527;-27
2020/12/09 08:22:33;;;;;;;37.53;22.73;;;3.80;99.90;;;;;;5035907;28;20444;-27
2020/12/09 08:25:08;;;;;;;40.43;25.13;;;3.80;99.90;;;;;;5041310;28;20455;-26
2020/12/09 08:27:42;;;;;;;36.50;20.80;;;3.90;99.90;;;;;;5037897;28;20447;-28
2020/12/09 08:30:12;;;;;;;35.70;22.43;;;4.00;99.90;;;;;;5035909;28;20444;-27
2020/12/09 08:32:55;;;;;;;40.47;24.33;;;4.00;99.90;;;;;;5020147;28;20524;-25
2020/12/09 08:35:24;;;;;;;40.43;23.50;;;4.10;99.90;;;;;;5021029;28;20492;-27
2020/12/09 08:37:54;;;;;;;44.50;27.40;;;4.10;99.90;;;;;;5017566;28;20437;-26
2020/12/09 08:40:21;;;;;;;41.63;27.27;;;4.20;99.90;;;;;;5014292;28;21033;-26
2020/12/09 08:42:52;;;;;;;35.70;22.43;;;4.20;99.90;;;;;;5019000;28;21104;-26
2020/12/09 08:45:19;;;;;;;37.73;23.50;;;4.20;99.90;;;;;;5018770;28;20567;-25
2020/12/09 08:47:46;;;;;;;40.17;22.20;;;4.20;99.90;;;;;;5026336;28;20539;-26
2020/12/09 08:50:13;;;;;;;36.80;22.60;;;4.10;99.90;;;;;;5034318;28;20475;-26
2020/12/09 08:52:40;;;;;;;41.23;25.60;;;4.10;99.90;;;;;;5043605;28;20459;-26
2020/12/09 08:55:07;;;;;;;49.80;25.03;;;4.10;99.90;;;;;;5039964;28;20448;-27
2020/12/09 08:57:34;;;;;;;37.10;22.37;;;4.10;99.90;;;;;;5042122;28;21127;-27
2020/12/09 09:00:01;;;;;;;36.40;21.97;;;3.90;99.90;;;;;;5039102;28;20452;-26
2020/12/09 09:02:28;;;;;;;38.37;22.57;;;3.90;99.90;;;;;;5039678;28;20441;-26
2020/12/09 09:04:55;;;;;;;48.77;31.43;;;3.80;99.90;;;;;;5044781;28;20765;-26
2020/12/09 09:07:22;;;;;;;36.57;23.93;;;3.70;99.90;;;;;;5038722;28;20441;-26
2020/12/09 09:09:50;;;;;;;33.97;22.20;;;3.80;99.90;;;;;;5038137;28;20440;-26
2020/12/09 09:12:16;;;;;;;36.80;22.63;;;3.80;99.90;;;;;;5043311;28;20452;-26
2020/12/09 09:14:44;;;;;;;37.13;22.67;;;3.80;99.90;;;;;;5042938;28;20443;-26
2020/12/09 09:17:11;;;;;;;36.60;23.17;;;3.80;99.90;;;;;;5037147;28;20471;-26
2020/12/09 09:19:38;;;;;;;39.93;24.07;;;3.80;99.90;;;;;;5044152;28;20444;-26
2020/12/09 09:22:05;;;;;;;36.63;23.30;;;3.90;99.90;;;;;;5042870;28;21157;-27
2020/12/09 09:24:32;;;;;;;36.30;21.87;;;3.80;99.90;;;;;;5041718;28;20441;-27
2020/12/09 09:27:00;;;;;;;47.83;34.20;;;3.90;99.90;;;;;;5039326;28;20446;-26
2020/12/09 09:29:28;;;;;;;42.00;26.67;;;4.00;99.90;;;;;;5030993;28;20770;-26
2020/12/09 09:31:55;;;;;;;34.03;21.00;;;4.10;99.90;;;;;;5039799;28;21225;-26
2020/12/09 09:34:22;;;;;;;31.23;21.50;;;4.10;99.90;;;;;;5040742;28;20444;-26
2020/12/09 09:36:49;;;;;;;34.50;20.87;;;4.20;99.90;;;;;;5039371;28;20467;-26
2020/12/09 09:39:16;;;;;;;32.73;20.90;;;4.20;99.90;;;;;;5038555;28;20865;-27
2020/12/09 09:41:43;;;;;;;29.60;21.27;;;4.20;99.90;;;;;;5037890;28;20445;-26
2020/12/09 09:44:11;;;;;;;36.03;20.63;;;4.20;99.90;;;;;;5035138;28;20518;-26
2020/12/09 09:46:38;;;;;;;35.90;22.87;;;4.30;99.90;;;;;;5031306;28;20441;-26
2020/12/09 09:49:05;;;;;;;34.13;24.13;;;4.30;99.90;;;;;;5037836;28;20484;-27
2020/12/09 09:51:32;;;;;;;40.10;21.10;;;4.40;99.90;;;;;;5041734;28;20523;-26
2020/12/09 09:53:59;;;;;;;31.17;22.20;;;4.30;99.90;;;;;;5038524;28;20451;-26
2020/12/09 09:56:26;;;;;;;36.70;23.03;;;4.40;99.90;;;;;;5036546;28;20981;-27
2020/12/09 09:58:53;;;;;;;33.07;24.63;;;4.40;99.90;;;;;;5020695;28;20504;-26
2020/12/09 10:01:21;;;;;;;30.10;20.67;;;4.40;99.90;;;;;;5040652;28;20825;-27
2020/12/09 10:03:48;;;;;;;32.63;21.90;;;4.50;99.90;;;;;;5039833;28;20441;-26
2020/12/09 10:06:15;;;;;;;33.27;23.67;;;4.50;99.90;;;;;;5037707;28;20452;-26
2020/12/09 10:08:41;;;;;;;33.20;21.20;;;4.60;99.90;;;;;;5039915;28;20494;-27
2020/12/09 10:11:08;;;;;;;28.27;19.90;;;4.60;99.90;;;;;;5042248;28;20457;-26
2020/12/09 10:13:35;;;;;;;31.90;20.27;;;4.60;99.90;;;;;;5029984;28;20511;-27
2020/12/09 10:16:01;;;;;;;27.87;19.47;;;4.50;99.90;;;;;;5021015;28;20480;-27
2020/12/09 10:18:29;;;;;;;28.10;20.70;;;4.40;99.90;;;;;;5031529;28;20461;-26
2020/12/09 10:20:56;;;;;;;32.63;20.40;;;4.40;99.90;;;;;;5040123;28;20449;-26
2020/12/09 10:23:23;;;;;;;30.67;20.37;;;4.30;99.90;;;;;;5035682;28;20731;-26
2020/12/09 10:25:50;;;;;;;27.27;17.83;;;4.20;99.90;;;;;;5032457;28;20445;-27
2020/12/09 10:28:17;;;;;;;29.97;20.73;;;4.20;99.90;;;;;;5005354;28;20519;-26
2020/12/09 10:30:47;;;;;;;29.87;20.90;;;4.20;99.90;;;;;;5035891;28;20783;-26
2020/12/09 10:33:15;;;;;;;34.03;21.93;;;4.20;99.90;;;;;;5041820;28;20447;-26
2020/12/09 10:35:45;;;;;;;33.07;21.70;;;4.10;99.90;;;;;;5042456;28;21139;-26
2020/12/09 10:38:11;;;;;;;29.77;20.43;;;4.10;99.90;;;;;;5041175;28;20550;-27
2020/12/09 10:40:38;;;;;;;25.90;20.20;;;4.10;99.90;;;;;;5038859;28;20903;-26
2020/12/09 10:43:05;;;;;;;31.20;20.33;;;4.10;99.90;;;;;;5031520;28;20463;-27
2020/12/09 10:45:31;;;;;;;35.67;20.80;;;4.10;99.90;;;;;;5030849;28;20465;-26
2020/12/09 10:47:59;;;;;;;33.60;21.87;;;4.10;99.90;;;;;;5034719;28;20559;-27
2020/12/09 10:50:25;;;;;;;32.97;20.50;;;4.10;99.90;;;;;;5041708;28;20502;-26
2020/12/09 10:52:53;;;;;;;32.60;21.10;;;4.20;99.90;;;;;;5038408;28;20909;-27
2020/12/09 10:55:19;;;;;;;28.73;19.87;;;4.20;99.90;;;;;;5040434;28;20445;-28
2020/12/09 10:57:49;;;;;;;29.47;20.17;;;4.20;99.90;;;;;;5038261;28;20464;-27
2020/12/09 11:00:16;;;;;;;38.13;25.17;;;4.20;99.90;;;;;;5034660;28;20514;-27
2020/12/09 11:02:44;;;;;;;32.33;22.40;;;4.20;99.90;;;;;;5038756;28;20452;-27
2020/12/09 11:05:12;;;;;;;38.07;26.10;;;4.20;99.90;;;;;;5038409;28;20574;-27
2020/12/09 11:07:40;;;;;;;35.40;23.43;;;4.20;99.90;;;;;;5019120;28;20447;-26
2020/12/09 11:10:20;;;;;;;37.97;23.23;;;4.20;99.90;;;;;;5018423;28;20467;-27
2020/12/09 11:12:51;;;;;;;40.33;24.90;;;4.10;99.90;;;;;;5029050;28;21089;-26
2020/12/09 11:15:17;;;;;;;37.00;24.03;;;4.10;99.90;;;;;;5037126;28;20448;-26
2020/12/09 11:17:44;;;;;;;40.07;25.13;;;4.20;99.90;;;;;;5043726;28;20450;-26
2020/12/09 11:20:10;;;;;;;38.60;23.20;;;4.20;99.90;;;;;;5026415;28;20456;-26
2020/12/09 11:22:38;;;;;;;41.30;24.23;;;4.20;99.90;;;;;;5039282;28;20456;-26
2020/12/09 11:25:05;;;;;;;42.13;24.10;;;4.20;99.90;;;;;;5027550;28;21070;-26
2020/12/09 11:27:34;;;;;;;45.10;25.00;;;4.20;99.90;;;;;;5034447;28;20449;-26
2020/12/09 11:30:01;;;;;;;56.70;29.07;;;4.10;99.90;;;;;;5032594;28;20460;-27
2020/12/09 11:32:32;;;;;;;48.87;27.13;;;4.00;99.90;;;;;;5028838;28;21286;-29
2020/12/09 11:34:59;;;;;;;49.10;28.77;;;4.10;99.90;;;;;;5023263;28;20456;-27
2020/12/09 11:37:27;;;;;;;45.47;26.70;;;4.20;99.90;;;;;;5023133;28;20475;-28
2020/12/09 11:39:55;;;;;;;51.50;25.80;;;4.30;99.90;;;;;;5041163;28;20526;-27
2020/12/09 11:42:22;;;;;;;51.73;27.93;;;4.30;99.90;;;;;;5037035;28;20452;-26
2020/12/09 11:44:50;;;;;;;53.70;31.70;;;4.30;99.90;;;;;;5037638;28;21137;-27
2020/12/09 11:47:17;;;;;;;48.10;28.20;;;4.30;99.90;;;;;;5031913;28;21099;-27
2020/12/09 11:49:45;;;;;;;57.03;36.73;;;4.20;99.90;;;;;;5015994;28;20496;-26
2020/12/09 11:52:14;;;;;;;70.10;43.13;;;4.20;99.90;;;;;;5017842;28;20452;-26
2020/12/09 11:54:41;;;;;;;51.73;26.27;;;4.10;99.90;;;;;;5027464;28;20460;-28
2020/12/09 11:57:08;;;;;;;50.03;28.10;;;4.00;99.90;;;;;;5038050;28;20852;-27
2020/12/09 11:59:47;;;;;;;53.67;27.77;;;4.00;99.90;;;;;;5035425;28;20552;-26
2020/12/09 12:02:16;;;;;;;50.40;30.37;;;4.00;99.90;;;;;;5030743;28;20441;-27
2020/12/09 12:04:51;;;;;;;58.87;29.70;;;3.90;99.90;;;;;;5037443;28;20440;-27
2020/12/09 12:07:18;;;;;;;55.77;29.10;;;4.00;99.90;;;;;;5032872;28;20436;-27
2020/12/09 12:09:46;;;;;;;52.17;27.60;;;4.00;99.90;;;;;;5032257;28;20537;-26
2020/12/09 12:12:13;;;;;;;58.60;31.00;;;4.00;99.90;;;;;;5033522;28;21411;-26
2020/12/09 12:14:43;;;;;;;72.50;36.73;;;4.00;99.90;;;;;;5029865;28;20456;-26
2020/12/09 12:17:12;;;;;;;53.33;29.27;;;4.00;99.90;;;;;;5034971;28;20469;-26
2020/12/09 12:19:41;;;;;;;67.90;38.63;;;4.00;99.90;;;;;;5025266;28;20449;-25
2020/12/09 12:22:09;;;;;;;55.00;31.70;;;4.00;99.90;;;;;;5036657;28;20436;-26
2020/12/09 12:24:37;;;;;;;57.70;32.77;;;3.90;99.90;;;;;;5014413;28;20434;-25
2020/12/09 12:27:09;;;;;;;55.07;31.80;;;3.90;99.90;;;;;;5023460;28;20458;-25
2020/12/09 12:29:41;;;;;;;51.47;29.70;;;3.90;99.90;;;;;;5033553;28;20782;-25
2020/12/09 12:32:10;;;;;;;49.23;29.70;;;3.90;99.90;;;;;;5045643;28;20547;-25
2020/12/09 12:34:44;;;;;;;55.80;29.40;;;3.90;99.90;;;;;;5047005;28;20452;-27
2020/12/09 12:37:11;;;;;;;43.17;24.53;;;3.90;99.90;;;;;;5034774;28;20479;-26
2020/12/09 12:39:38;;;;;;;47.20;26.30;;;3.90;99.90;;;;;;5046543;28;20464;-25
2020/12/09 12:42:05;;;;;;;49.50;25.60;;;3.80;99.90;;;;;;5043087;28;20939;-25
2020/12/09 12:44:33;;;;;;;48.03;25.27;;;3.90;99.90;;;;;;5021974;28;20456;-25